sensor_id;sensor_type;location;lat;lon;timestamp;temperature;humidity
1297;DHT22;641;48.492;9.184;2023-11-21T00:00:10;7.60;99.90
1297;DHT22;641;48.492;9.184;2023-11-21T00:02:38;7.70;99.90
1297;DHT22;641;48.492;9.184;2023-11-21T00:05:06;7.70;99.90
1297;DHT22;641;48.492;9.184;2023-11-21T00:07:33;7.60;99.90
1297;DHT22;641;48.492;9.184;2023-11-21T00:09:59;7.60;99.90
1297;DHT22;641;48.492;9.184;2023-11-21T00:12:24;7.70;99.90
1297;DHT22;641;48.492;9.184;2023-11-21T00:14:50;7.70;99.90
1297;DHT22;641;48.492;9.184;2023-11-21T00:17:15;7.60;99.90
1297;DHT22;641;48.492;9.184;2023-11-21T00:19:41;7.60;99.90
1297;DHT22;641;48.492;9.184;2023-11-21T00:22:08;7.60;99.90
1297;DHT22;641;48.492;9.184;2023-11-21T00:24:34;7.60;99.90
1297;DHT22;641;48.492;9.184;2023-11-21T00:27:00;7.60;99.90
1297;DHT22;641;48.492;9.184;2023-11-21T00:29:26;7.60;99.90
1297;DHT22;641;48.492;9.184;2023-11-21T00:31:51;7.60;99.90
1297;DHT22;641;48.492;9.184;2023-11-21T00:34:17;7.60;99.90
1297;DHT22;641;48.492;9.184;2023-11-21T00:36:42;7.60;99.90
1297;DHT22;641;48.492;9.184;2023-11-21T00:39:08;7.60;99.90
1297;DHT22;641;48.492;9.184;2023-11-21T00:41:34;7.60;99.90
1297;DHT22;641;48.492;9.184;2023-11-21T00:44:00;7.60;99.90
1297;DHT22;641;48.492;9.184;2023-11-21T00:46:26;7.60;99.90
1297;DHT22;641;48.492;9.184;2023-11-21T00:48:55;7.70;99.90
1297;DHT22;641;48.492;9.184;2023-11-21T00:51:21;7.70;99.90
1297;DHT22;641;48.492;9.184;2023-11-21T00:53:47;7.70;99.90
1297;DHT22;641;48.492;9.184;2023-11-21T00:56:13;7.70;99.90
1297;DHT22;641;48.492;9.184;2023-11-21T00:58:40;7.80;99.90
1297;DHT22;641;48.492;9.184;2023-11-21T01:01:11;7.80;99.90
1297;DHT22;641;48.492;9.184;2023-11-21T01:03:37;7.80;99.90
1297;DHT22;641;48.492;9.184;2023-11-21T01:06:03;7.80;99.90
1297;DHT22;641;48.492;9.184;2023-11-21T01:08:30;7.80;99.90
1297;DHT22;641;48.492;9.184;2023-11-21T01:10:56;7.80;99.90
1297;DHT22;641;48.492;9.184;2023-11-21T01:13:22;7.80;99.90
1297;DHT22;641;48.492;9.184;2023-11-21T01:15:47;7.90;99.90
1297;DHT22;641;48.492;9.184;2023-11-21T01:18:13;7.90;99.90
1297;DHT22;641;48.492;9.184;2023-11-21T01:20:38;7.80;99.90
1297;DHT22;641;48.492;9.184;2023-11-21T01:23:05;7.80;99.90
1297;DHT22;641;48.492;9.184;2023-11-21T01:25:30;7.80;99.90
1297;DHT22;641;48.492;9.184;2023-11-21T01:27:56;7.90;99.90
1297;DHT22;641;48.492;9.184;2023-11-21T01:30:21;7.90;99.90
1297;DHT22;641;48.492;9.184;2023-11-21T01:32:47;7.80;99.90
1297;DHT22;641;48.492;9.184;2023-11-21T01:35:13;7.80;99.90
1297;DHT22;641;48.492;9.184;2023-11-21T01:37:38;7.80;99.90
1297;DHT22;641;48.492;9.184;2023-11-21T01:40:05;7.70;99.90
1297;DHT22;641;48.492;9.184;2023-11-21T01:42:38;7.70;99.90
1297;DHT22;641;48.492;9.184;2023-11-21T01:45:04;7.70;99.90
1297;DHT22;641;48.492;9.184;2023-11-21T01:47:34;7.60;99.90
1297;DHT22;641;48.492;9.184;2023-11-21T01:50:01;7.50;99.90
1297;DHT22;641;48.492;9.184;2023-11-21T01:52:30;7.50;99.90
1297;DHT22;641;48.492;9.184;2023-11-21T01:54:55;7.50;99.90
1297;DHT22;641;48.492;9.184;2023-11-21T01:57:22;7.50;99.90
1297;DHT22;641;48.492;9.184;2023-11-21T01:59:48;7.50;99.90
1297;DHT22;641;48.492;9.184;2023-11-21T02:02:15;7.50;99.90
1297;DHT22;641;48.492;9.184;2023-11-21T02:04:41;7.60;99.90
1297;DHT22;641;48.492;9.184;2023-11-21T02:07:07;7.60;99.90
1297;DHT22;641;48.492;9.184;2023-11-21T02:09:33;7.50;99.90
1297;DHT22;641;48.492;9.184;2023-11-21T02:12:00;7.50;99.90
1297;DHT22;641;48.492;9.184;2023-11-21T02:14:26;7.60;99.90
1297;DHT22;641;48.492;9.184;2023-11-21T02:16:54;7.60;99.90
1297;DHT22;641;48.492;9.184;2023-11-21T02:19:22;7.60;99.90
1297;DHT22;641;48.492;9.184;2023-11-21T02:21:56;7.60;99.90
1297;DHT22;641;48.492;9.184;2023-11-21T02:24:28;7.60;99.90
1297;DHT22;641;48.492;9.184;2023-11-21T02:26:54;7.70;99.90
1297;DHT22;641;48.492;9.184;2023-11-21T02:29:20;7.60;99.90
1297;DHT22;641;48.492;9.184;2023-11-21T02:31:54;7.60;99.90
1297;DHT22;641;48.492;9.184;2023-11-21T02:34:21;7.50;99.90
1297;DHT22;641;48.492;9.184;2023-11-21T02:36:47;7.50;99.90
1297;DHT22;641;48.492;9.184;2023-11-21T02:39:17;7.40;99.90
1297;DHT22;641;48.492;9.184;2023-11-21T02:41:43;7.40;99.90
1297;DHT22;641;48.492;9.184;2023-11-21T02:44:09;7.40;99.90
1297;DHT22;641;48.492;9.184;2023-11-21T02:46:36;7.40;99.90
1297;DHT22;641;48.492;9.184;2023-11-21T02:49:03;7.40;99.90
1297;DHT22;641;48.492;9.184;2023-11-21T02:51:29;7.50;99.90
1297;DHT22;641;48.492;9.184;2023-11-21T02:53:55;7.50;99.90
1297;DHT22;641;48.492;9.184;2023-11-21T02:56:27;7.60;99.90
1297;DHT22;641;48.492;9.184;2023-11-21T02:58:55;7.50;99.90
1297;DHT22;641;48.492;9.184;2023-11-21T03:01:20;7.50;99.90
1297;DHT22;641;48.492;9.184;2023-11-21T03:03:46;7.50;99.90
1297;DHT22;641;48.492;9.184;2023-11-21T03:06:17;7.50;99.90
1297;DHT22;641;48.492;9.184;2023-11-21T03:08:42;7.50;99.90
1297;DHT22;641;48.492;9.184;2023-11-21T03:11:08;7.50;99.90
1297;DHT22;641;48.492;9.184;2023-11-21T03:13:33;7.50;99.90
1297;DHT22;641;48.492;9.184;2023-11-21T03:15:59;7.50;99.90
1297;DHT22;641;48.492;9.184;2023-11-21T03:18:25;7.60;99.90
1297;DHT22;641;48.492;9.184;2023-11-21T03:20:52;7.60;99.90
1297;DHT22;641;48.492;9.184;2023-11-21T03:23:18;7.60;99.90
1297;DHT22;641;48.492;9.184;2023-11-21T03:25:44;7.70;99.90
1297;DHT22;641;48.492;9.184;2023-11-21T03:28:10;7.70;99.90
1297;DHT22;641;48.492;9.184;2023-11-21T03:30:35;7.80;99.90
1297;DHT22;641;48.492;9.184;2023-11-21T03:33:01;7.80;99.90
1297;DHT22;641;48.492;9.184;2023-11-21T03:35:26;7.80;99.90
1297;DHT22;641;48.492;9.184;2023-11-21T03:37:52;7.80;99.90
1297;DHT22;641;48.492;9.184;2023-11-21T03:40:17;7.80;99.90
1297;DHT22;641;48.492;9.184;2023-11-21T03:42:43;7.80;99.90
1297;DHT22;641;48.492;9.184;2023-11-21T03:45:09;7.80;99.90
1297;DHT22;641;48.492;9.184;2023-11-21T03:47:35;7.80;99.90
1297;DHT22;641;48.492;9.184;2023-11-21T03:50:00;7.80;99.90
1297;DHT22;641;48.492;9.184;2023-11-21T03:52:26;7.70;99.90
1297;DHT22;641;48.492;9.184;2023-11-21T03:54:53;7.80;99.90
1297;DHT22;641;48.492;9.184;2023-11-21T03:57:20;7.80;99.90
1297;DHT22;641;48.492;9.184;2023-11-21T03:59:46;7.80;99.90
1297;DHT22;641;48.492;9.184;2023-11-21T04:02:12;7.80;99.90
1297;DHT22;641;48.492;9.184;2023-11-21T04:04:37;7.80;99.90
1297;DHT22;641;48.492;9.184;2023-11-21T04:07:03;7.70;99.90
1297;DHT22;641;48.492;9.184;2023-11-21T04:09:29;7.80;99.90
1297;DHT22;641;48.492;9.184;2023-11-21T04:11:54;7.80;99.90
1297;DHT22;641;48.492;9.184;2023-11-21T04:14:21;7.70;99.90
1297;DHT22;641;48.492;9.184;2023-11-21T04:16:46;7.80;99.90
1297;DHT22;641;48.492;9.184;2023-11-21T04:19:12;7.80;99.90
1297;DHT22;641;48.492;9.184;2023-11-21T04:21:41;7.70;99.90
1297;DHT22;641;48.492;9.184;2023-11-21T04:24:07;7.70;99.90
1297;DHT22;641;48.492;9.184;2023-11-21T04:26:32;7.70;99.90
1297;DHT22;641;48.492;9.184;2023-11-21T04:28:58;7.70;99.90
1297;DHT22;641;48.492;9.184;2023-11-21T04:31:24;7.80;99.90
1297;DHT22;641;48.492;9.184;2023-11-21T04:33:49;7.70;99.90
1297;DHT22;641;48.492;9.184;2023-11-21T04:36:15;7.70;99.90
1297;DHT22;641;48.492;9.184;2023-11-21T04:38:40;7.70;99.90
1297;DHT22;641;48.492;9.184;2023-11-21T04:41:06;7.70;99.90
1297;DHT22;641;48.492;9.184;2023-11-21T04:43:32;7.60;99.90
1297;DHT22;641;48.492;9.184;2023-11-21T04:45:57;7.60;99.90
1297;DHT22;641;48.492;9.184;2023-11-21T04:48:23;7.60;99.90
1297;DHT22;641;48.492;9.184;2023-11-21T04:50:48;7.50;99.90
1297;DHT22;641;48.492;9.184;2023-11-21T04:53:14;7.60;99.90
1297;DHT22;641;48.492;9.184;2023-11-21T04:55:40;7.60;99.90
1297;DHT22;641;48.492;9.184;2023-11-21T04:58:06;7.50;99.90
1297;DHT22;641;48.492;9.184;2023-11-21T05:00:31;7.50;99.90
1297;DHT22;641;48.492;9.184;2023-11-21T05:02:57;7.50;99.90
1297;DHT22;641;48.492;9.184;2023-11-21T05:05:23;7.50;99.90
1297;DHT22;641;48.492;9.184;2023-11-21T05:07:49;7.50;99.90
1297;DHT22;641;48.492;9.184;2023-11-21T05:10:14;7.50;99.90
1297;DHT22;641;48.492;9.184;2023-11-21T05:12:41;7.50;99.90
1297;DHT22;641;48.492;9.184;2023-11-21T05:15:08;7.40;99.90
1297;DHT22;641;48.492;9.184;2023-11-21T05:17:38;7.40;99.90
1297;DHT22;641;48.492;9.184;2023-11-21T05:20:15;7.40;99.90
1297;DHT22;641;48.492;9.184;2023-11-21T05:22:49;7.40;99.90
1297;DHT22;641;48.492;9.184;2023-11-21T05:25:15;7.40;99.90
1297;DHT22;641;48.492;9.184;2023-11-21T05:27:40;7.30;99.90
1297;DHT22;641;48.492;9.184;2023-11-21T05:30:06;7.40;99.90
1297;DHT22;641;48.492;9.184;2023-11-21T05:32:34;7.30;99.90
1297;DHT22;641;48.492;9.184;2023-11-21T05:35:00;7.30;99.90
1297;DHT22;641;48.492;9.184;2023-11-21T05:37:26;7.30;99.90
1297;DHT22;641;48.492;9.184;2023-11-21T05:39:53;7.20;99.90
1297;DHT22;641;48.492;9.184;2023-11-21T05:42:18;7.20;99.90
1297;DHT22;641;48.492;9.184;2023-11-21T05:44:44;7.30;99.90
1297;DHT22;641;48.492;9.184;2023-11-21T05:47:10;7.30;99.90
1297;DHT22;641;48.492;9.184;2023-11-21T05:49:36;7.30;99.90
1297;DHT22;641;48.492;9.184;2023-11-21T05:52:02;7.30;99.90
1297;DHT22;641;48.492;9.184;2023-11-21T05:54:28;7.40;99.90
1297;DHT22;641;48.492;9.184;2023-11-21T05:56:53;7.40;99.90
1297;DHT22;641;48.492;9.184;2023-11-21T05:59:19;7.40;99.90
1297;DHT22;641;48.492;9.184;2023-11-21T06:01:45;7.40;99.90
1297;DHT22;641;48.492;9.184;2023-11-21T06:04:11;7.40;99.90
1297;DHT22;641;48.492;9.184;2023-11-21T06:06:38;7.40;99.90
1297;DHT22;641;48.492;9.184;2023-11-21T06:09:04;7.40;99.90
1297;DHT22;641;48.492;9.184;2023-11-21T06:11:31;7.40;99.90
1297;DHT22;641;48.492;9.184;2023-11-21T06:13:57;7.40;99.90
1297;DHT22;641;48.492;9.184;2023-11-21T06:16:23;7.40;99.90
1297;DHT22;641;48.492;9.184;2023-11-21T06:18:49;7.40;99.90
1297;DHT22;641;48.492;9.184;2023-11-21T06:21:15;7.30;99.90
1297;DHT22;641;48.492;9.184;2023-11-21T06:23:42;7.30;99.90
1297;DHT22;641;48.492;9.184;2023-11-21T06:26:08;7.20;99.90
1297;DHT22;641;48.492;9.184;2023-11-21T06:28:34;7.20;99.90
1297;DHT22;641;48.492;9.184;2023-11-21T06:31:01;7.20;99.90
1297;DHT22;641;48.492;9.184;2023-11-21T06:33:34;7.20;99.90
1297;DHT22;641;48.492;9.184;2023-11-21T06:36:00;7.10;99.90
1297;DHT22;641;48.492;9.184;2023-11-21T06:38:28;7.10;99.90
1297;DHT22;641;48.492;9.184;2023-11-21T06:40:56;7.30;99.90
1297;DHT22;641;48.492;9.184;2023-11-21T06:43:22;7.20;99.90
1297;DHT22;641;48.492;9.184;2023-11-21T06:45:47;7.10;99.90
1297;DHT22;641;48.492;9.184;2023-11-21T06:48:13;7.10;99.90
1297;DHT22;641;48.492;9.184;2023-11-21T06:50:38;7.20;99.90
1297;DHT22;641;48.492;9.184;2023-11-21T06:53:04;7.30;99.90
1297;DHT22;641;48.492;9.184;2023-11-21T06:55:32;7.30;99.90
1297;DHT22;641;48.492;9.184;2023-11-21T06:57:57;7.30;99.90
1297;DHT22;641;48.492;9.184;2023-11-21T07:00:23;7.40;99.90
1297;DHT22;641;48.492;9.184;2023-11-21T07:02:49;7.40;99.90
1297;DHT22;641;48.492;9.184;2023-11-21T07:05:14;7.40;99.90
1297;DHT22;641;48.492;9.184;2023-11-21T07:07:41;7.40;99.90
1297;DHT22;641;48.492;9.184;2023-11-21T07:10:06;7.40;99.90
1297;DHT22;641;48.492;9.184;2023-11-21T07:12:33;7.50;99.90
1297;DHT22;641;48.492;9.184;2023-11-21T07:14:59;7.50;99.90
1297;DHT22;641;48.492;9.184;2023-11-21T07:17:25;7.60;99.90
1297;DHT22;641;48.492;9.184;2023-11-21T07:19:50;7.60;99.90
1297;DHT22;641;48.492;9.184;2023-11-21T07:22:16;7.70;99.90
1297;DHT22;641;48.492;9.184;2023-11-21T07:24:50;7.70;99.90
1297;DHT22;641;48.492;9.184;2023-11-21T07:27:18;7.80;99.90
1297;DHT22;641;48.492;9.184;2023-11-21T07:29:44;7.90;99.90
1297;DHT22;641;48.492;9.184;2023-11-21T07:32:10;8.00;99.90
1297;DHT22;641;48.492;9.184;2023-11-21T07:34:36;8.00;99.90
1297;DHT22;641;48.492;9.184;2023-11-21T07:37:02;8.00;99.90
1297;DHT22;641;48.492;9.184;2023-11-21T07:39:28;8.00;99.90
1297;DHT22;641;48.492;9.184;2023-11-21T07:41:54;8.10;99.90
1297;DHT22;641;48.492;9.184;2023-11-21T07:44:20;8.10;99.90
1297;DHT22;641;48.492;9.184;2023-11-21T07:46:46;8.20;99.90
1297;DHT22;641;48.492;9.184;2023-11-21T07:49:12;8.20;99.90
1297;DHT22;641;48.492;9.184;2023-11-21T07:51:41;8.20;99.90
1297;DHT22;641;48.492;9.184;2023-11-21T07:54:07;8.10;99.90
1297;DHT22;641;48.492;9.184;2023-11-21T07:56:33;8.10;99.90
1297;DHT22;641;48.492;9.184;2023-11-21T07:58:58;8.10;99.90
1297;DHT22;641;48.492;9.184;2023-11-21T08:01:24;8.20;99.90
1297;DHT22;641;48.492;9.184;2023-11-21T08:03:50;8.20;99.90
1297;DHT22;641;48.492;9.184;2023-11-21T08:06:17;8.20;99.90
1297;DHT22;641;48.492;9.184;2023-11-21T08:08:43;8.20;99.90
1297;DHT22;641;48.492;9.184;2023-11-21T08:11:08;8.30;99.90
1297;DHT22;641;48.492;9.184;2023-11-21T08:13:35;8.30;99.90
1297;DHT22;641;48.492;9.184;2023-11-21T08:16:01;8.30;99.90
1297;DHT22;641;48.492;9.184;2023-11-21T08:18:30;8.40;99.90
1297;DHT22;641;48.492;9.184;2023-11-21T08:20:56;8.50;99.90
1297;DHT22;641;48.492;9.184;2023-11-21T08:23:22;8.50;99.90
1297;DHT22;641;48.492;9.184;2023-11-21T08:25:52;8.50;99.90
1297;DHT22;641;48.492;9.184;2023-11-21T08:28:18;8.60;99.90
1297;DHT22;641;48.492;9.184;2023-11-21T08:30:43;8.60;99.90
1297;DHT22;641;48.492;9.184;2023-11-21T08:33:09;8.70;99.90
1297;DHT22;641;48.492;9.184;2023-11-21T08:35:36;8.70;99.90
1297;DHT22;641;48.492;9.184;2023-11-21T08:38:02;8.60;99.90
1297;DHT22;641;48.492;9.184;2023-11-21T08:40:28;8.50;99.90
1297;DHT22;641;48.492;9.184;2023-11-21T08:42:54;8.60;99.90
1297;DHT22;641;48.492;9.184;2023-11-21T08:45:23;8.60;99.90
1297;DHT22;641;48.492;9.184;2023-11-21T08:47:48;8.70;99.90
1297;DHT22;641;48.492;9.184;2023-11-21T08:50:14;8.60;99.90
1297;DHT22;641;48.492;9.184;2023-11-21T08:52:41;8.60;99.90
1297;DHT22;641;48.492;9.184;2023-11-21T08:55:08;8.70;99.90
1297;DHT22;641;48.492;9.184;2023-11-21T08:57:37;8.70;99.90
1297;DHT22;641;48.492;9.184;2023-11-21T09:00:04;8.70;99.90
1297;DHT22;641;48.492;9.184;2023-11-21T09:02:33;8.80;99.90
1297;DHT22;641;48.492;9.184;2023-11-21T09:05:00;8.80;99.90
1297;DHT22;641;48.492;9.184;2023-11-21T09:07:28;8.70;99.90
1297;DHT22;641;48.492;9.184;2023-11-21T09:09:54;8.80;99.90
1297;DHT22;641;48.492;9.184;2023-11-21T09:12:20;8.90;99.90
1297;DHT22;641;48.492;9.184;2023-11-21T09:14:46;8.90;99.90
1297;DHT22;641;48.492;9.184;2023-11-21T09:17:12;9.00;99.90
1297;DHT22;641;48.492;9.184;2023-11-21T09:19:38;9.00;99.90
1297;DHT22;641;48.492;9.184;2023-11-21T09:22:04;9.10;99.90
1297;DHT22;641;48.492;9.184;2023-11-21T09:24:31;9.10;99.90
1297;DHT22;641;48.492;9.184;2023-11-21T09:26:56;8.90;99.90
1297;DHT22;641;48.492;9.184;2023-11-21T09:29:22;8.90;99.90
1297;DHT22;641;48.492;9.184;2023-11-21T09:31:48;9.00;99.90
1297;DHT22;641;48.492;9.184;2023-11-21T09:34:15;9.00;99.90
1297;DHT22;641;48.492;9.184;2023-11-21T09:36:40;8.90;99.90
1297;DHT22;641;48.492;9.184;2023-11-21T09:39:06;8.90;99.90
1297;DHT22;641;48.492;9.184;2023-11-21T09:41:43;9.00;99.90
1297;DHT22;641;48.492;9.184;2023-11-21T09:44:13;9.10;99.90
1297;DHT22;641;48.492;9.184;2023-11-21T09:46:42;9.10;99.90
1297;DHT22;641;48.492;9.184;2023-11-21T09:49:09;9.40;99.90
1297;DHT22;641;48.492;9.184;2023-11-21T09:51:42;9.40;99.90
1297;DHT22;641;48.492;9.184;2023-11-21T09:54:10;9.50;99.90
1297;DHT22;641;48.492;9.184;2023-11-21T09:56:38;9.60;99.90
1297;DHT22;641;48.492;9.184;2023-11-21T09:59:03;9.50;99.90
1297;DHT22;641;48.492;9.184;2023-11-21T10:01:32;9.50;99.90
1297;DHT22;641;48.492;9.184;2023-11-21T10:03:58;9.60;99.90
1297;DHT22;641;48.492;9.184;2023-11-21T10:06:26;9.50;99.90
1297;DHT22;641;48.492;9.184;2023-11-21T10:08:53;9.30;99.90
1297;DHT22;641;48.492;9.184;2023-11-21T10:11:20;9.30;99.90
1297;DHT22;641;48.492;9.184;2023-11-21T10:13:49;9.20;99.90
1297;DHT22;641;48.492;9.184;2023-11-21T10:16:18;9.10;99.90
1297;DHT22;641;48.492;9.184;2023-11-21T10:18:48;9.20;99.90
1297;DHT22;641;48.492;9.184;2023-11-21T10:21:16;9.20;99.90
1297;DHT22;641;48.492;9.184;2023-11-21T10:23:42;9.00;99.90
1297;DHT22;641;48.492;9.184;2023-11-21T10:26:11;8.80;99.90
1297;DHT22;641;48.492;9.184;2023-11-21T10:29:02;8.70;99.90
1297;DHT22;641;48.492;9.184;2023-11-21T10:31:32;8.50;99.90
1297;DHT22;641;48.492;9.184;2023-11-21T10:34:19;8.60;99.90
1297;DHT22;641;48.492;9.184;2023-11-21T10:36:45;8.70;99.90
1297;DHT22;641;48.492;9.184;2023-11-21T10:39:17;8.70;99.90
1297;DHT22;641;48.492;9.184;2023-11-21T10:41:50;8.90;99.90
1297;DHT22;641;48.492;9.184;2023-11-21T10:44:19;8.90;99.90
1297;DHT22;641;48.492;9.184;2023-11-21T10:46:51;9.00;99.90
1297;DHT22;641;48.492;9.184;2023-11-21T10:49:20;9.00;99.90
1297;DHT22;641;48.492;9.184;2023-11-21T10:51:46;9.10;99.90
1297;DHT22;641;48.492;9.184;2023-11-21T10:54:17;9.10;99.90
1297;DHT22;641;48.492;9.184;2023-11-21T10:56:43;9.10;99.90
1297;DHT22;641;48.492;9.184;2023-11-21T10:59:10;9.20;99.90
1297;DHT22;641;48.492;9.184;2023-11-21T11:01:42;9.30;99.90
1297;DHT22;641;48.492;9.184;2023-11-21T11:04:11;9.30;99.90
1297;DHT22;641;48.492;9.184;2023-11-21T11:06:54;9.30;99.90
1297;DHT22;641;48.492;9.184;2023-11-21T11:09:20;9.20;99.90
1297;DHT22;641;48.492;9.184;2023-11-21T11:11:46;9.10;99.90
1297;DHT22;641;48.492;9.184;2023-11-21T11:14:12;9.00;99.90
1297;DHT22;641;48.492;9.184;2023-11-21T11:16:40;9.00;99.90
1297;DHT22;641;48.492;9.184;2023-11-21T11:19:09;9.00;99.90
1297;DHT22;641;48.492;9.184;2023-11-21T11:22:24;9.10;99.90
1297;DHT22;641;48.492;9.184;2023-11-21T11:25:08;9.10;99.90
1297;DHT22;641;48.492;9.184;2023-11-21T11:28:07;9.20;99.90
1297;DHT22;641;48.492;9.184;2023-11-21T11:31:00;9.20;99.90
1297;DHT22;641;48.492;9.184;2023-11-21T11:36:22;9.10;99.90
1297;DHT22;641;48.492;9.184;2023-11-21T11:38:51;9.10;99.90
1297;DHT22;641;48.492;9.184;2023-11-21T11:41:30;9.20;99.90
1297;DHT22;641;48.492;9.184;2023-11-21T11:44:00;9.30;99.90
1297;DHT22;641;48.492;9.184;2023-11-21T11:46:45;9.60;99.90
1297;DHT22;641;48.492;9.184;2023-11-21T11:49:24;9.70;99.90
1297;DHT22;641;48.492;9.184;2023-11-21T11:54:55;9.20;99.90
1297;DHT22;641;48.492;9.184;2023-11-21T11:57:24;9.20;99.90
1297;DHT22;641;48.492;9.184;2023-11-21T12:00:15;9.20;99.90
1297;DHT22;641;48.492;9.184;2023-11-21T12:02:44;9.10;99.90
1297;DHT22;641;48.492;9.184;2023-11-21T12:05:11;9.00;99.90
1297;DHT22;641;48.492;9.184;2023-11-21T12:07:54;9.00;99.90
1297;DHT22;641;48.492;9.184;2023-11-21T12:10:28;9.00;99.90
1297;DHT22;641;48.492;9.184;2023-11-21T12:13:05;8.90;99.90
1297;DHT22;641;48.492;9.184;2023-11-21T12:15:33;8.80;99.90
1297;DHT22;641;48.492;9.184;2023-11-21T12:17:58;8.80;99.90
1297;DHT22;641;48.492;9.184;2023-11-21T12:20:25;8.80;99.90
1297;DHT22;641;48.492;9.184;2023-11-21T12:25:29;8.80;99.90
1297;DHT22;641;48.492;9.184;2023-11-21T12:27:57;8.80;99.90
1297;DHT22;641;48.492;9.184;2023-11-21T12:30:25;8.80;99.90
1297;DHT22;641;48.492;9.184;2023-11-21T12:32:54;8.70;99.90
1297;DHT22;641;48.492;9.184;2023-11-21T12:35:23;8.70;99.90
1297;DHT22;641;48.492;9.184;2023-11-21T12:37:49;8.70;99.90
1297;DHT22;641;48.492;9.184;2023-11-21T12:40:16;8.70;99.90
1297;DHT22;641;48.492;9.184;2023-11-21T12:42:46;8.70;99.90
1297;DHT22;641;48.492;9.184;2023-11-21T12:47:46;9.00;99.90
1297;DHT22;641;48.492;9.184;2023-11-21T12:50:12;9.00;99.90
1297;DHT22;641;48.492;9.184;2023-11-21T12:52:46;9.00;99.90
1297;DHT22;641;48.492;9.184;2023-11-21T12:55:19;9.00;99.90
1297;DHT22;641;48.492;9.184;2023-11-21T12:57:49;9.00;99.90
1297;DHT22;641;48.492;9.184;2023-11-21T13:00:17;9.00;99.90
1297;DHT22;641;48.492;9.184;2023-11-21T13:02:57;9.10;99.90
1297;DHT22;641;48.492;9.184;2023-11-21T13:05:27;9.10;99.90
1297;DHT22;641;48.492;9.184;2023-11-21T13:07:57;9.10;99.90
1297;DHT22;641;48.492;9.184;2023-11-21T13:10:24;9.10;99.90
1297;DHT22;641;48.492;9.184;2023-11-21T13:12:58;9.10;99.90
1297;DHT22;641;48.492;9.184;2023-11-21T13:15:25;9.00;99.90
1297;DHT22;641;48.492;9.184;2023-11-21T13:17:51;9.10;99.90
1297;DHT22;641;48.492;9.184;2023-11-21T13:20:19;9.10;99.90
1297;DHT22;641;48.492;9.184;2023-11-21T13:22:50;9.10;99.90
1297;DHT22;641;48.492;9.184;2023-11-21T13:25:20;9.00;99.90
1297;DHT22;641;48.492;9.184;2023-11-21T13:27:46;9.10;99.90
1297;DHT22;641;48.492;9.184;2023-11-21T13:30:13;9.10;99.90
1297;DHT22;641;48.492;9.184;2023-11-21T13:32:44;9.10;99.90
1297;DHT22;641;48.492;9.184;2023-11-21T13:35:11;9.10;99.90
1297;DHT22;641;48.492;9.184;2023-11-21T13:37:48;9.10;99.90
1297;DHT22;641;48.492;9.184;2023-11-21T13:40:15;9.00;99.90
1297;DHT22;641;48.492;9.184;2023-11-21T13:42:45;9.00;99.90
1297;DHT22;641;48.492;9.184;2023-11-21T13:45:11;9.00;99.90
1297;DHT22;641;48.492;9.184;2023-11-21T13:47:38;9.10;99.90
1297;DHT22;641;48.492;9.184;2023-11-21T13:50:05;9.00;99.90
1297;DHT22;641;48.492;9.184;2023-11-21T13:52:39;9.00;99.90
1297;DHT22;641;48.492;9.184;2023-11-21T13:55:05;9.20;99.90
1297;DHT22;641;48.492;9.184;2023-11-21T13:57:36;9.20;99.90
1297;DHT22;641;48.492;9.184;2023-11-21T14:00:03;9.10;99.90
1297;DHT22;641;48.492;9.184;2023-11-21T14:02:36;9.10;99.90
1297;DHT22;641;48.492;9.184;2023-11-21T14:05:07;9.10;99.90
1297;DHT22;641;48.492;9.184;2023-11-21T14:07:35;9.10;99.90
1297;DHT22;641;48.492;9.184;2023-11-21T14:10:05;9.10;99.90
1297;DHT22;641;48.492;9.184;2023-11-21T14:12:33;9.00;99.90
1297;DHT22;641;48.492;9.184;2023-11-21T14:15:01;9.10;99.90
1297;DHT22;641;48.492;9.184;2023-11-21T14:17:30;9.10;99.90
1297;DHT22;641;48.492;9.184;2023-11-21T14:19:56;9.20;99.90
1297;DHT22;641;48.492;9.184;2023-11-21T14:22:21;9.20;99.90
1297;DHT22;641;48.492;9.184;2023-11-21T14:24:47;9.30;99.90
1297;DHT22;641;48.492;9.184;2023-11-21T14:27:15;9.40;99.90
1297;DHT22;641;48.492;9.184;2023-11-21T14:29:41;9.30;99.90
1297;DHT22;641;48.492;9.184;2023-11-21T14:32:09;9.10;99.90
1297;DHT22;641;48.492;9.184;2023-11-21T14:34:47;8.90;99.90
1297;DHT22;641;48.492;9.184;2023-11-21T14:37:13;8.80;99.90
1297;DHT22;641;48.492;9.184;2023-11-21T14:39:39;8.70;99.90
1297;DHT22;641;48.492;9.184;2023-11-21T14:42:10;8.60;99.90
1297;DHT22;641;48.492;9.184;2023-11-21T14:44:35;8.50;99.90
1297;DHT22;641;48.492;9.184;2023-11-21T14:47:05;8.50;99.90
1297;DHT22;641;48.492;9.184;2023-11-21T14:49:38;8.60;99.90
1297;DHT22;641;48.492;9.184;2023-11-21T14:52:18;8.50;99.90
1297;DHT22;641;48.492;9.184;2023-11-21T14:55:03;8.40;99.90
1297;DHT22;641;48.492;9.184;2023-11-21T14:57:46;8.30;99.90
1297;DHT22;641;48.492;9.184;2023-11-21T15:00:20;8.30;99.90
1297;DHT22;641;48.492;9.184;2023-11-21T15:03:04;8.30;99.90
1297;DHT22;641;48.492;9.184;2023-11-21T15:05:31;8.30;99.90
1297;DHT22;641;48.492;9.184;2023-11-21T15:07:57;8.30;99.90
1297;DHT22;641;48.492;9.184;2023-11-21T15:10:33;8.20;99.90
1297;DHT22;641;48.492;9.184;2023-11-21T15:13:12;8.20;99.90
1297;DHT22;641;48.492;9.184;2023-11-21T15:15:39;8.20;99.90
1297;DHT22;641;48.492;9.184;2023-11-21T15:18:05;8.20;99.90
1297;DHT22;641;48.492;9.184;2023-11-21T15:20:32;8.20;99.90
1297;DHT22;641;48.492;9.184;2023-11-21T15:22:57;8.20;99.90
1297;DHT22;641;48.492;9.184;2023-11-21T15:25:23;8.30;99.90
1297;DHT22;641;48.492;9.184;2023-11-21T15:27:49;8.30;99.90
1297;DHT22;641;48.492;9.184;2023-11-21T15:30:16;8.20;99.90
1297;DHT22;641;48.492;9.184;2023-11-21T15:32:44;8.30;99.90
1297;DHT22;641;48.492;9.184;2023-11-21T15:35:10;8.30;99.90
1297;DHT22;641;48.492;9.184;2023-11-21T15:37:39;8.30;99.90
1297;DHT22;641;48.492;9.184;2023-11-21T15:40:05;8.40;99.90
1297;DHT22;641;48.492;9.184;2023-11-21T15:42:32;8.30;99.90
1297;DHT22;641;48.492;9.184;2023-11-21T15:44:57;8.30;99.90
1297;DHT22;641;48.492;9.184;2023-11-21T15:47:23;8.30;99.90
1297;DHT22;641;48.492;9.184;2023-11-21T15:49:49;8.20;99.90
1297;DHT22;641;48.492;9.184;2023-11-21T15:52:16;8.20;99.90
1297;DHT22;641;48.492;9.184;2023-11-21T15:54:42;8.20;99.90
1297;DHT22;641;48.492;9.184;2023-11-21T15:57:10;8.20;99.90
1297;DHT22;641;48.492;9.184;2023-11-21T15:59:40;8.20;99.90
1297;DHT22;641;48.492;9.184;2023-11-21T16:02:07;8.20;99.90
1297;DHT22;641;48.492;9.184;2023-11-21T16:04:33;8.20;99.90
1297;DHT22;641;48.492;9.184;2023-11-21T16:07:01;8.20;99.90
1297;DHT22;641;48.492;9.184;2023-11-21T16:09:27;8.20;99.90
1297;DHT22;641;48.492;9.184;2023-11-21T16:12:04;8.20;99.90
1297;DHT22;641;48.492;9.184;2023-11-21T16:14:34;8.30;99.90
1297;DHT22;641;48.492;9.184;2023-11-21T16:17:02;8.30;99.90
1297;DHT22;641;48.492;9.184;2023-11-21T16:19:28;8.30;99.90
1297;DHT22;641;48.492;9.184;2023-11-21T16:21:54;8.30;99.90
1297;DHT22;641;48.492;9.184;2023-11-21T16:24:20;8.20;99.90
1297;DHT22;641;48.492;9.184;2023-11-21T16:26:46;8.20;99.90
1297;DHT22;641;48.492;9.184;2023-11-21T16:29:12;8.20;99.90
1297;DHT22;641;48.492;9.184;2023-11-21T16:31:39;8.10;99.90
1297;DHT22;641;48.492;9.184;2023-11-21T16:34:15;8.10;99.90
1297;DHT22;641;48.492;9.184;2023-11-21T16:36:41;8.10;99.90
1297;DHT22;641;48.492;9.184;2023-11-21T16:39:12;8.10;99.90
1297;DHT22;641;48.492;9.184;2023-11-21T16:41:41;8.20;99.90
1297;DHT22;641;48.492;9.184;2023-11-21T16:44:18;8.10;99.90
1297;DHT22;641;48.492;9.184;2023-11-21T16:46:44;8.00;99.90
1297;DHT22;641;48.492;9.184;2023-11-21T16:49:15;8.00;99.90